sensor_id;sensor_type;location;lat;lon;timestamp;P1;P2;P0
65383;PMS5003;51986;52.788;41.368;2023-03-03T00:01:31;0.00;0.00;0.00
65383;PMS5003;51986;52.788;41.368;2023-03-03T00:03:58;0.00;0.00;0.00
65383;PMS5003;51986;52.788;41.368;2023-03-03T00:06:25;0.00;0.00;0.00
65383;PMS5003;51986;52.788;41.368;2023-03-03T00:08:53;1.00;0.00;0.00
65383;PMS5003;51986;52.788;41.368;2023-03-03T00:11:20;0.00;0.00;0.00
65383;PMS5003;51986;52.788;41.368;2023-03-03T00:13:48;0.00;0.00;0.00
65383;PMS5003;51986;52.788;41.368;2023-03-03T00:16:31;0.00;0.00;0.00
65383;PMS5003;51986;52.788;41.368;2023-03-03T00:19:03;1.00;1.00;0.00
65383;PMS5003;51986;52.788;41.368;2023-03-03T00:21:41;1.00;1.00;0.00
65383;PMS5003;51986;52.788;41.368;2023-03-03T00:24:18;0.00;0.00;0.00
65383;PMS5003;51986;52.788;41.368;2023-03-03T00:26:49;0.00;0.00;0.00
65383;PMS5003;51986;52.788;41.368;2023-03-03T00:29:40;0.00;0.00;0.00
65383;PMS5003;51986;52.788;41.368;2023-03-03T00:34:41;0.00;0.00;0.00
65383;PMS5003;51986;52.788;41.368;2023-03-03T00:37:26;0.00;0.00;0.00
65383;PMS5003;51986;52.788;41.368;2023-03-03T00:40:10;0.00;0.00;0.00
65383;PMS5003;51986;52.788;41.368;2023-03-03T00:42:46;0.00;0.00;0.00
65383;PMS5003;51986;52.788;41.368;2023-03-03T00:45:26;1.00;1.00;0.00
65383;PMS5003;51986;52.788;41.368;2023-03-03T00:47:55;0.00;0.00;0.00
65383;PMS5003;51986;52.788;41.368;2023-03-03T00:50:31;1.00;0.00;0.00
65383;PMS5003;51986;52.788;41.368;2023-03-03T00:53:04;0.00;0.00;0.00
65383;PMS5003;51986;52.788;41.368;2023-03-03T00:55:42;0.00;0.00;0.00
65383;PMS5003;51986;52.788;41.368;2023-03-03T00:58:10;1.00;0.00;0.00
65383;PMS5003;51986;52.788;41.368;2023-03-03T01:00:41;1.00;0.00;0.00
65383;PMS5003;51986;52.788;41.368;2023-03-03T01:03:12;0.00;0.00;0.00
65383;PMS5003;51986;52.788;41.368;2023-03-03T01:05:42;0.00;0.00;0.00
65383;PMS5003;51986;52.788;41.368;2023-03-03T01:08:09;1.25;0.25;0.00
65383;PMS5003;51986;52.788;41.368;2023-03-03T01:10:37;1.00;1.00;0.00
65383;PMS5003;51986;52.788;41.368;2023-03-03T01:13:08;0.00;0.00;0.00
65383;PMS5003;51986;52.788;41.368;2023-03-03T01:15:36;0.00;0.00;0.00
65383;PMS5003;51986;52.788;41.368;2023-03-03T01:18:05;0.75;0.75;0.00
65383;PMS5003;51986;52.788;41.368;2023-03-03T01:20:33;0.00;0.00;0.00
65383;PMS5003;51986;52.788;41.368;2023-03-03T01:23:00;0.00;0.00;0.00
65383;PMS5003;51986;52.788;41.368;2023-03-03T01:25:27;0.00;0.00;0.00
65383;PMS5003;51986;52.788;41.368;2023-03-03T01:27:55;0.00;0.00;0.00
65383;PMS5003;51986;52.788;41.368;2023-03-03T01:30:22;0.00;0.00;0.00
65383;PMS5003;51986;52.788;41.368;2023-03-03T01:32:49;0.00;0.00;0.00
65383;PMS5003;51986;52.788;41.368;2023-03-03T01:35:17;0.00;0.00;0.00
65383;PMS5003;51986;52.788;41.368;2023-03-03T01:37:44;0.00;0.00;0.00
65383;PMS5003;51986;52.788;41.368;2023-03-03T01:40:17;0.00;0.00;0.00
65383;PMS5003;51986;52.788;41.368;2023-03-03T01:42:46;1.00;0.00;0.00
65383;PMS5003;51986;52.788;41.368;2023-03-03T01:47:47;1.00;0.00;0.00
65383;PMS5003;51986;52.788;41.368;2023-03-03T01:53:33;1.00;1.00;0.00
65383;PMS5003;51986;52.788;41.368;2023-03-03T01:56:08;1.00;1.00;0.00
65383;PMS5003;51986;52.788;41.368;2023-03-03T01:58:38;1.00;0.00;0.00
65383;PMS5003;51986;52.788;41.368;2023-03-03T02:01:13;1.00;0.75;0.00
65383;PMS5003;51986;52.788;41.368;2023-03-03T02:03:43;1.00;1.00;0.00
65383;PMS5003;51986;52.788;41.368;2023-03-03T02:06:12;0.00;0.00;0.00
65383;PMS5003;51986;52.788;41.368;2023-03-03T02:08:44;0.25;0.00;0.00
65383;PMS5003;51986;52.788;41.368;2023-03-03T02:11:20;1.00;0.00;0.00
65383;PMS5003;51986;52.788;41.368;2023-03-03T02:13:48;1.00;0.00;0.00
65383;PMS5003;51986;52.788;41.368;2023-03-03T02:16:15;2.00;1.00;0.00
65383;PMS5003;51986;52.788;41.368;2023-03-03T02:18:42;1.00;1.00;0.00
65383;PMS5003;51986;52.788;41.368;2023-03-03T02:21:17;0.00;0.00;0.00
65383;PMS5003;51986;52.788;41.368;2023-03-03T02:26:25;0.00;0.00;0.00
65383;PMS5003;51986;52.788;41.368;2023-03-03T02:28:59;1.00;1.00;0.00
65383;PMS5003;51986;52.788;41.368;2023-03-03T02:31:28;1.50;1.50;0.00
65383;PMS5003;51986;52.788;41.368;2023-03-03T02:33:56;2.00;2.00;0.00
65383;PMS5003;51986;52.788;41.368;2023-03-03T02:41:38;2.00;1.00;0.00
65383;PMS5003;51986;52.788;41.368;2023-03-03T02:44:08;1.00;1.00;0.00
65383;PMS5003;51986;52.788;41.368;2023-03-03T02:46:41;0.00;0.00;0.00
65383;PMS5003;51986;52.788;41.368;2023-03-03T02:49:11;0.00;0.00;0.00
65383;PMS5003;51986;52.788;41.368;2023-03-03T02:51:40;1.00;0.00;0.00
65383;PMS5003;51986;52.788;41.368;2023-03-03T02:54:08;0.00;0.00;0.00
65383;PMS5003;51986;52.788;41.368;2023-03-03T02:56:37;3.00;1.25;0.00
65383;PMS5003;51986;52.788;41.368;2023-03-03T02:59:05;0.00;0.00;0.00
65383;PMS5003;51986;52.788;41.368;2023-03-03T03:01:38;2.00;1.00;0.00
65383;PMS5003;51986;52.788;41.368;2023-03-03T03:04:11;3.00;1.00;0.00
65383;PMS5003;51986;52.788;41.368;2023-03-03T03:06:43;2.00;1.00;0.00
65383;PMS5003;51986;52.788;41.368;2023-03-03T03:09:12;3.00;1.00;0.00
65383;PMS5003;51986;52.788;41.368;2023-03-03T03:11:42;0.50;0.50;0.00
65383;PMS5003;51986;52.788;41.368;2023-03-03T03:14:10;1.25;1.25;0.00
65383;PMS5003;51986;52.788;41.368;2023-03-03T03:16:39;1.00;1.00;0.00
65383;PMS5003;51986;52.788;41.368;2023-03-03T03:19:07;0.00;0.00;0.00
65383;PMS5003;51986;52.788;41.368;2023-03-03T03:21:35;0.00;0.00;0.00
65383;PMS5003;51986;52.788;41.368;2023-03-03T03:24:04;0.00;0.00;0.00
65383;PMS5003;51986;52.788;41.368;2023-03-03T03:26:33;0.00;0.00;0.00
65383;PMS5003;51986;52.788;41.368;2023-03-03T03:29:00;0.00;0.00;0.00
65383;PMS5003;51986;52.788;41.368;2023-03-03T03:31:27;0.25;0.25;0.00
65383;PMS5003;51986;52.788;41.368;2023-03-03T03:33:54;1.00;1.00;0.00
65383;PMS5003;51986;52.788;41.368;2023-03-03T03:36:22;1.00;1.00;0.00
65383;PMS5003;51986;52.788;41.368;2023-03-03T03:38:49;3.00;2.00;0.00
65383;PMS5003;51986;52.788;41.368;2023-03-03T03:41:16;2.00;1.00;0.00
65383;PMS5003;51986;52.788;41.368;2023-03-03T03:43:43;2.50;2.25;0.50
65383;PMS5003;51986;52.788;41.368;2023-03-03T03:46:11;3.00;3.00;0.00
65383;PMS5003;51986;52.788;41.368;2023-03-03T03:48:37;1.25;1.00;0.00
65383;PMS5003;51986;52.788;41.368;2023-03-03T03:51:06;1.00;0.75;0.00
65383;PMS5003;51986;52.788;41.368;2023-03-03T03:53:34;1.00;0.00;0.00
65383;PMS5003;51986;52.788;41.368;2023-03-03T03:56:01;3.75;3.00;1.25
65383;PMS5003;51986;52.788;41.368;2023-03-03T03:58:29;4.00;3.00;2.00
65383;PMS5003;51986;52.788;41.368;2023-03-03T04:01:01;4.00;3.00;2.00
65383;PMS5003;51986;52.788;41.368;2023-03-03T04:03:31;1.50;0.75;0.00
65383;PMS5003;51986;52.788;41.368;2023-03-03T04:05:59;1.50;1.00;0.00
65383;PMS5003;51986;52.788;41.368;2023-03-03T04:08:26;3.00;2.00;0.00
65383;PMS5003;51986;52.788;41.368;2023-03-03T04:10:53;3.00;1.00;0.00
65383;PMS5003;51986;52.788;41.368;2023-03-03T04:13:20;1.00;1.00;0.00
65383;PMS5003;51986;52.788;41.368;2023-03-03T04:15:47;0.00;0.00;0.00
65383;PMS5003;51986;52.788;41.368;2023-03-03T04:18:15;1.00;1.00;0.00
65383;PMS5003;51986;52.788;41.368;2023-03-03T04:20:43;2.00;2.00;1.00
65383;PMS5003;51986;52.788;41.368;2023-03-03T04:23:10;2.50;2.50;2.00
65383;PMS5003;51986;52.788;41.368;2023-03-03T04:25:37;3.00;2.00;1.00
65383;PMS5003;51986;52.788;41.368;2023-03-03T04:28:11;3.00;2.50;1.00
65383;PMS5003;51986;52.788;41.368;2023-03-03T04:30:39;2.00;1.00;1.00
65383;PMS5003;51986;52.788;41.368;2023-03-03T04:33:07;3.00;3.00;1.00
65383;PMS5003;51986;52.788;41.368;2023-03-03T04:35:36;2.00;2.00;0.00
65383;PMS5003;51986;52.788;41.368;2023-03-03T04:38:03;3.00;2.50;0.00
65383;PMS5003;51986;52.788;41.368;2023-03-03T04:40:30;3.50;2.00;0.00
65383;PMS5003;51986;52.788;41.368;2023-03-03T04:42:59;4.00;3.00;1.00
65383;PMS5003;51986;52.788;41.368;2023-03-03T04:45:26;2.50;1.00;0.25
65383;PMS5003;51986;52.788;41.368;2023-03-03T04:47:54;3.00;1.00;0.00
65383;PMS5003;51986;52.788;41.368;2023-03-03T04:50:21;3.00;2.00;0.00
65383;PMS5003;51986;52.788;41.368;2023-03-03T04:52:48;3.00;3.00;0.00
65383;PMS5003;51986;52.788;41.368;2023-03-03T04:55:15;3.75;3.00;0.50
65383;PMS5003;51986;52.788;41.368;2023-03-03T04:57:45;4.00;4.00;2.00
65383;PMS5003;51986;52.788;41.368;2023-03-03T05:00:13;5.00;4.00;2.00
65383;PMS5003;51986;52.788;41.368;2023-03-03T05:02:40;4.75;3.75;2.00
65383;PMS5003;51986;52.788;41.368;2023-03-03T05:05:08;2.00;2.00;1.00
65383;PMS5003;51986;52.788;41.368;2023-03-03T05:07:35;3.50;3.00;1.00
65383;PMS5003;51986;52.788;41.368;2023-03-03T05:10:02;3.00;3.00;1.00
65383;PMS5003;51986;52.788;41.368;2023-03-03T05:12:29;4.00;4.00;1.25
65383;PMS5003;51986;52.788;41.368;2023-03-03T05:14:56;4.00;3.00;1.00
65383;PMS5003;51986;52.788;41.368;2023-03-03T05:17:23;2.25;2.00;1.00
65383;PMS5003;51986;52.788;41.368;2023-03-03T05:19:50;3.50;2.50;0.00
65383;PMS5003;51986;52.788;41.368;2023-03-03T05:22:17;3.00;1.25;0.00
65383;PMS5003;51986;52.788;41.368;2023-03-03T05:24:44;5.00;3.75;0.00
65383;PMS5003;51986;52.788;41.368;2023-03-03T05:27:11;5.00;4.50;0.00
65383;PMS5003;51986;52.788;41.368;2023-03-03T05:29:38;6.00;5.00;2.25
65383;PMS5003;51986;52.788;41.368;2023-03-03T05:32:04;5.00;4.00;2.00
65383;PMS5003;51986;52.788;41.368;2023-03-03T05:34:32;5.50;4.50;2.50
65383;PMS5003;51986;52.788;41.368;2023-03-03T05:36:59;3.00;3.00;0.75
65383;PMS5003;51986;52.788;41.368;2023-03-03T05:39:26;7.00;5.00;1.50
65383;PMS5003;51986;52.788;41.368;2023-03-03T05:41:53;7.25;6.00;4.00
65383;PMS5003;51986;52.788;41.368;2023-03-03T05:44:20;3.25;3.00;1.25
65383;PMS5003;51986;52.788;41.368;2023-03-03T05:46:47;8.00;6.50;2.25
65383;PMS5003;51986;52.788;41.368;2023-03-03T05:49:14;6.50;5.75;2.00
65383;PMS5003;51986;52.788;41.368;2023-03-03T05:51:41;9.00;7.00;3.00
65383;PMS5003;51986;52.788;41.368;2023-03-03T05:54:07;11.00;7.00;5.00
65383;PMS5003;51986;52.788;41.368;2023-03-03T05:56:34;7.75;5.00;2.50
65383;PMS5003;51986;52.788;41.368;2023-03-03T05:59:01;5.25;5.00;3.00
65383;PMS5003;51986;52.788;41.368;2023-03-03T06:01:28;5.00;4.25;3.00
65383;PMS5003;51986;52.788;41.368;2023-03-03T06:03:55;5.00;4.00;2.00
65383;PMS5003;51986;52.788;41.368;2023-03-03T06:06:22;10.00;8.25;5.50
65383;PMS5003;51986;52.788;41.368;2023-03-03T06:08:49;11.00;9.00;3.00
65383;PMS5003;51986;52.788;41.368;2023-03-03T06:11:16;8.75;5.00;1.50
65383;PMS5003;51986;52.788;41.368;2023-03-03T06:13:44;6.75;5.50;2.75
65383;PMS5003;51986;52.788;41.368;2023-03-03T06:16:11;5.00;3.25;2.25
65383;PMS5003;51986;52.788;41.368;2023-03-03T06:18:38;5.25;4.50;1.75
65383;PMS5003;51986;52.788;41.368;2023-03-03T06:21:05;5.00;5.00;2.00
65383;PMS5003;51986;52.788;41.368;2023-03-03T06:23:32;4.00;4.00;1.00
65383;PMS5003;51986;52.788;41.368;2023-03-03T06:25:59;4.00;3.75;1.00
65383;PMS5003;51986;52.788;41.368;2023-03-03T06:28:26;10.25;10.00;6.25
65383;PMS5003;51986;52.788;41.368;2023-03-03T06:30:54;8.50;6.25;3.00
65383;PMS5003;51986;52.788;41.368;2023-03-03T06:33:22;8.50;5.50;3.00
65383;PMS5003;51986;52.788;41.368;2023-03-03T06:35:49;11.50;10.00;6.00
65383;PMS5003;51986;52.788;41.368;2023-03-03T06:38:18;9.50;6.50;3.00
65383;PMS5003;51986;52.788;41.368;2023-03-03T06:40:45;9.00;8.00;5.00
65383;PMS5003;51986;52.788;41.368;2023-03-03T06:43:13;11.00;9.00;4.75
65383;PMS5003;51986;52.788;41.368;2023-03-03T06:45:40;9.00;5.00;1.00
65383;PMS5003;51986;52.788;41.368;2023-03-03T06:48:07;7.50;3.00;1.00
65383;PMS5003;51986;52.788;41.368;2023-03-03T06:50:34;5.00;3.50;1.25
65383;PMS5003;51986;52.788;41.368;2023-03-03T06:53:11;6.00;6.00;2.00
65383;PMS5003;51986;52.788;41.368;2023-03-03T06:55:43;5.50;5.00;2.00
65383;PMS5003;51986;52.788;41.368;2023-03-03T06:58:15;10.25;7.75;5.50
65383;PMS5003;51986;52.788;41.368;2023-03-03T07:00:45;9.00;7.00;3.50
65383;PMS5003;51986;52.788;41.368;2023-03-03T07:03:23;5.50;5.25;3.25
65383;PMS5003;51986;52.788;41.368;2023-03-03T07:05:58;6.75;5.25;2.75
65383;PMS5003;51986;52.788;41.368;2023-03-03T07:08:28;6.25;6.25;2.50
65383;PMS5003;51986;52.788;41.368;2023-03-03T07:11:00;6.75;5.00;3.00
65383;PMS5003;51986;52.788;41.368;2023-03-03T07:13:34;6.00;5.00;3.00
65383;PMS5003;51986;52.788;41.368;2023-03-03T07:16:11;7.00;5.00;2.00
65383;PMS5003;51986;52.788;41.368;2023-03-03T07:18:52;5.00;3.00;2.00
65383;PMS5003;51986;52.788;41.368;2023-03-03T07:21:22;8.00;6.75;4.00
65383;PMS5003;51986;52.788;41.368;2023-03-03T07:23:56;11.00;8.00;5.50
65383;PMS5003;51986;52.788;41.368;2023-03-03T07:26:32;9.00;6.00;3.00
65383;PMS5003;51986;52.788;41.368;2023-03-03T07:29:00;7.00;5.50;3.50
65383;PMS5003;51986;52.788;41.368;2023-03-03T07:31:39;12.75;10.00;6.00
65383;PMS5003;51986;52.788;41.368;2023-03-03T07:34:36;9.00;5.00;2.00
65383;PMS5003;51986;52.788;41.368;2023-03-03T07:37:32;11.75;9.25;6.25
65383;PMS5003;51986;52.788;41.368;2023-03-03T07:40:47;10.00;10.00;5.00
65383;PMS5003;51986;52.788;41.368;2023-03-03T07:43:01;7.25;6.50;1.00
65383;PMS5003;51986;52.788;41.368;2023-03-03T07:46:40;5.00;4.00;1.00
65383;PMS5003;51986;52.788;41.368;2023-03-03T07:49:16;3.00;2.50;1.00
65383;PMS5003;51986;52.788;41.368;2023-03-03T07:51:55;4.25;3.00;2.00
65383;PMS5003;51986;52.788;41.368;2023-03-03T07:54:38;11.25;10.25;7.25
65383;PMS5003;51986;52.788;41.368;2023-03-03T08:02:41;14.25;11.25;7.25
65383;PMS5003;51986;52.788;41.368;2023-03-03T08:05:22;10.50;9.00;6.00
65383;PMS5003;51986;52.788;41.368;2023-03-03T08:07:54;10.75;8.75;6.00
65383;PMS5003;51986;52.788;41.368;2023-03-03T08:10:51;15.00;14.50;11.25
65383;PMS5003;51986;52.788;41.368;2023-03-03T08:18:46;6.00;4.50;1.25
65383;PMS5003;51986;52.788;41.368;2023-03-03T08:21:21;11.00;10.00;5.50
65383;PMS5003;51986;52.788;41.368;2023-03-03T08:23:49;10.00;8.00;4.00
65383;PMS5003;51986;52.788;41.368;2023-03-03T08:26:21;16.25;13.00;9.50
65383;PMS5003;51986;52.788;41.368;2023-03-03T08:28:50;15.00;13.75;10.00
65383;PMS5003;51986;52.788;41.368;2023-03-03T08:31:18;11.50;9.75;5.00
65383;PMS5003;51986;52.788;41.368;2023-03-03T08:34:04;10.00;8.00;4.50
65383;PMS5003;51986;52.788;41.368;2023-03-03T08:36:30;8.50;6.00;4.00
65383;PMS5003;51986;52.788;41.368;2023-03-03T08:39:00;15.00;14.25;11.75
65383;PMS5003;51986;52.788;41.368;2023-03-03T08:41:27;15.25;14.75;11.50
65383;PMS5003;51986;52.788;41.368;2023-03-03T08:43:54;19.00;18.00;14.00
65383;PMS5003;51986;52.788;41.368;2023-03-03T08:46:21;12.50;12.00;10.00
65383;PMS5003;51986;52.788;41.368;2023-03-03T08:48:48;12.75;10.75;6.75
65383;PMS5003;51986;52.788;41.368;2023-03-03T08:51:15;8.25;7.50;4.00
65383;PMS5003;51986;52.788;41.368;2023-03-03T08:53:42;16.50;14.75;11.50
65383;PMS5003;51986;52.788;41.368;2023-03-03T08:56:09;19.50;18.00;14.00
65383;PMS5003;51986;52.788;41.368;2023-03-03T08:58:37;15.00;14.00;11.00
65383;PMS5003;51986;52.788;41.368;2023-03-03T09:01:04;16.00;14.25;11.25
65383;PMS5003;51986;52.788;41.368;2023-03-03T09:03:31;13.25;13.00;10.50
65383;PMS5003;51986;52.788;41.368;2023-03-03T09:05:58;16.00;16.00;13.00
65383;PMS5003;51986;52.788;41.368;2023-03-03T09:08:26;17.75;17.00;14.00
65383;PMS5003;51986;52.788;41.368;2023-03-03T09:10:53;15.00;14.25;11.00
65383;PMS5003;51986;52.788;41.368;2023-03-03T09:13:22;18.00;17.75;14.00
65383;PMS5003;51986;52.788;41.368;2023-03-03T09:15:49;13.50;11.75;9.50
65383;PMS5003;51986;52.788;41.368;2023-03-03T09:18:18;21.00;18.50;14.25
65383;PMS5003;51986;52.788;41.368;2023-03-03T09:20:53;18.00;16.00;13.00
65383;PMS5003;51986;52.788;41.368;2023-03-03T09:28:53;21.75;20.00;15.25
65383;PMS5003;51986;52.788;41.368;2023-03-03T09:31:35;23.00;20.00;14.00
65383;PMS5003;51986;52.788;41.368;2023-03-03T09:34:52;17.00;16.00;13.00
65383;PMS5003;51986;52.788;41.368;2023-03-03T09:39:52;20.50;19.50;14.50
65383;PMS5003;51986;52.788;41.368;2023-03-03T09:48:24;20.00;20.00;15.00
65383;PMS5003;51986;52.788;41.368;2023-03-03T09:51:00;19.00;18.00;14.00
65383;PMS5003;51986;52.788;41.368;2023-03-03T09:56:24;15.25;15.25;13.25
65383;PMS5003;51986;52.788;41.368;2023-03-03T10:12:04;20.50;18.75;15.00
65383;PMS5003;51986;52.788;41.368;2023-03-03T10:23:04;19.25;18.00;15.00
65383;PMS5003;51986;52.788;41.368;2023-03-03T10:32:00;8.50;8.25;6.50
65383;PMS5003;51986;52.788;41.368;2023-03-03T10:37:10;8.00;8.00;7.00
65383;PMS5003;51986;52.788;41.368;2023-03-03T10:39:49;9.00;8.00;6.50
65383;PMS5003;51986;52.788;41.368;2023-03-03T10:42:26;8.50;8.50;6.00
65383;PMS5003;51986;52.788;41.368;2023-03-03T10:45:10;10.00;10.00;8.00
65383;PMS5003;51986;52.788;41.368;2023-03-03T10:50:26;16.00;15.75;13.00
65383;PMS5003;51986;52.788;41.368;2023-03-03T10:55:34;16.50;16.00;13.00
65383;PMS5003;51986;52.788;41.368;2023-03-03T11:00:51;22.00;18.50;15.25
65383;PMS5003;51986;52.788;41.368;2023-03-03T11:09:04;16.50;15.50;12.50
65383;PMS5003;51986;52.788;41.368;2023-03-03T11:11:36;13.00;13.00;11.00
65383;PMS5003;51986;52.788;41.368;2023-03-03T11:30:57;16.50;16.00;13.25
65383;PMS5003;51986;52.788;41.368;2023-03-03T11:36:43;16.75;16.50;14.00
65383;PMS5003;51986;52.788;41.368;2023-03-03T11:39:17;20.50;20.00;15.00
65383;PMS5003;51986;52.788;41.368;2023-03-03T11:44:51;16.50;15.75;12.75
65383;PMS5003;51986;52.788;41.368;2023-03-03T11:47:31;19.00;18.00;14.50
65383;PMS5003;51986;52.788;41.368;2023-03-03T11:50:15;15.25;12.25;11.00
65383;PMS5003;51986;52.788;41.368;2023-03-03T11:55:46;18.50;16.75;14.50
65383;PMS5003;51986;52.788;41.368;2023-03-03T12:09:32;10.00;10.00;7.50
65383;PMS5003;51986;52.788;41.368;2023-03-03T12:12:20;11.50;10.00;6.00
65383;PMS5003;51986;52.788;41.368;2023-03-03T12:18:01;12.00;11.00;7.00
65383;PMS5003;51986;52.788;41.368;2023-03-03T12:29:25;12.00;12.00;10.50
65383;PMS5003;51986;52.788;41.368;2023-03-03T12:37:51;17.25;14.50;11.75
65383;PMS5003;51986;52.788;41.368;2023-03-03T12:40:25;21.75;19.75;16.75
65383;PMS5003;51986;52.788;41.368;2023-03-03T12:45:48;17.75;17.75;14.25
65383;PMS5003;51986;52.788;41.368;2023-03-03T12:48:20;12.00;12.00;8.00
65383;PMS5003;51986;52.788;41.368;2023-03-03T12:50:59;14.00;13.75;10.75
65383;PMS5003;51986;52.788;41.368;2023-03-03T12:53:37;10.00;9.75;7.25
65383;PMS5003;51986;52.788;41.368;2023-03-03T12:56:46;5.50;5.00;3.00
65383;PMS5003;51986;52.788;41.368;2023-03-03T12:59:32;12.25;11.25;9.75
65383;PMS5003;51986;52.788;41.368;2023-03-03T13:02:37;15.00;14.00;12.50
65383;PMS5003;51986;52.788;41.368;2023-03-03T13:10:55;12.00;11.00;6.00
65383;PMS5003;51986;52.788;41.368;2023-03-03T13:13:47;14.25;14.00;11.25
65383;PMS5003;51986;52.788;41.368;2023-03-03T13:16:28;12.00;11.50;6.75
65383;PMS5003;51986;52.788;41.368;2023-03-03T13:19:10;16.00;16.00;12.00
65383;PMS5003;51986;52.788;41.368;2023-03-03T13:22:11;14.00;13.00;9.50
65383;PMS5003;51986;52.788;41.368;2023-03-03T13:27:37;10.50;9.75;5.00
65383;PMS5003;51986;52.788;41.368;2023-03-03T13:30:14;16.00;14.00;11.50
65383;PMS5003;51986;52.788;41.368;2023-03-03T13:32:53;16.00;14.00;12.00
65383;PMS5003;51986;52.788;41.368;2023-03-03T13:35:38;13.00;12.00;6.00
65383;PMS5003;51986;52.788;41.368;2023-03-03T13:38:12;12.00;10.00;4.00
65383;PMS5003;51986;52.788;41.368;2023-03-03T13:40:47;12.00;10.25;6.75
65383;PMS5003;51986;52.788;41.368;2023-03-03T13:43:24;9.75;7.75;5.00
65383;PMS5003;51986;52.788;41.368;2023-03-03T13:56:42;14.00;13.75;10.75
65383;PMS5003;51986;52.788;41.368;2023-03-03T13:59:40;17.00;16.00;13.00
65383;PMS5003;51986;52.788;41.368;2023-03-03T14:08:20;17.00;16.00;13.00
65383;PMS5003;51986;52.788;41.368;2023-03-03T14:11:06;17.25;16.75;13.25
65383;PMS5003;51986;52.788;41.368;2023-03-03T14:19:45;5.00;4.00;3.00
65383;PMS5003;51986;52.788;41.368;2023-03-03T14:24:56;11.75;11.00;10.25
65383;PMS5003;51986;52.788;41.368;2023-03-03T14:27:25;9.50;9.00;7.75
65383;PMS5003;51986;52.788;41.368;2023-03-03T14:30:05;6.00;4.00;4.00
65383;PMS5003;51986;52.788;41.368;2023-03-03T14:35:35;5.00;5.00;4.00
65383;PMS5003;51986;52.788;41.368;2023-03-03T14:40:48;7.50;7.50;5.75
65383;PMS5003;51986;52.788;41.368;2023-03-03T14:43:33;3.00;3.00;2.25
65383;PMS5003;51986;52.788;41.368;2023-03-03T14:49:11;12.50;11.75;11.00
65383;PMS5003;51986;52.788;41.368;2023-03-03T14:51:55;14.00;13.00;11.00
65383;PMS5003;51986;52.788;41.368;2023-03-03T14:54:29;8.25;6.75;5.50
65383;PMS5003;51986;52.788;41.368;2023-03-03T15:00:26;13.25;12.75;11.75
65383;PMS5003;51986;52.788;41.368;2023-03-03T15:02:40;8.50;7.75;6.25
65383;PMS5003;51986;52.788;41.368;2023-03-03T15:07:54;10.75;10.25;8.00
65383;PMS5003;51986;52.788;41.368;2023-03-03T15:10:43;5.50;5.25;4.00
65383;PMS5003;51986;52.788;41.368;2023-03-03T15:16:09;12.00;12.00;11.00
65383;PMS5003;51986;52.788;41.368;2023-03-03T15:21:58;3.50;3.50;2.00
65383;PMS5003;51986;52.788;41.368;2023-03-03T15:24:39;5.75;5.75;4.75
65383;PMS5003;51986;52.788;41.368;2023-03-03T15:27:19;10.00;9.00;8.00
65383;PMS5003;51986;52.788;41.368;2023-03-03T15:32:28;5.00;3.00;2.00
65383;PMS5003;51986;52.788;41.368;2023-03-03T15:40:28;6.00;6.00;5.25
65383;PMS5003;51986;52.788;41.368;2023-03-03T15:46:13;8.25;8.25;6.00
65383;PMS5003;51986;52.788;41.368;2023-03-03T15:53:03;9.00;8.00;6.75
65383;PMS5003;51986;52.788;41.368;2023-03-03T15:55:31;7.00;6.00;4.00
65383;PMS5003;51986;52.788;41.368;2023-03-03T16:15:43;10.00;10.00;8.00
65383;PMS5003;51986;52.788;41.368;2023-03-03T16:23:57;8.75;7.50;3.00
65383;PMS5003;51986;52.788;41.368;2023-03-03T16:32:04;5.00;3.75;3.00
65383;PMS5003;51986;52.788;41.368;2023-03-03T16:35:04;3.00;2.00;1.00
65383;PMS5003;51986;52.788;41.368;2023-03-03T16:37:57;6.50;6.50;5.00
65383;PMS5003;51986;52.788;41.368;2023-03-03T16:51:33;10.75;10.00;9.00
65383;PMS5003;51986;52.788;41.368;2023-03-03T16:54:17;7.25;6.75;4.00
65383;PMS5003;51986;52.788;41.368;2023-03-03T16:57:10;5.00;4.00;2.00
65383;PMS5003;51986;52.788;41.368;2023-03-03T17:02:57;7.75;7.75;6.00
65383;PMS5003;51986;52.788;41.368;2023-03-03T17:05:52;6.25;5.75;5.00
65383;PMS5003;51986;52.788;41.368;2023-03-03T17:30:44;4.75;3.00;1.25
65383;PMS5003;51986;52.788;41.368;2023-03-03T17:33:25;2.00;1.00;0.00
65383;PMS5003;51986;52.788;41.368;2023-03-03T17:36:12;5.75;4.75;3.75
65383;PMS5003;51986;52.788;41.368;2023-03-03T17:41:44;2.75;2.00;1.00
65383;PMS5003;51986;52.788;41.368;2023-03-03T17:45:05;2.00;1.00;0.25
65383;PMS5003;51986;52.788;41.368;2023-03-03T17:56:12;2.50;2.25;1.00
65383;PMS5003;51986;52.788;41.368;2023-03-03T18:07:23;5.00;5.00;3.00
65383;PMS5003;51986;52.788;41.368;2023-03-03T18:16:11;3.00;3.00;1.00
65383;PMS5003;51986;52.788;41.368;2023-03-03T18:27:37;5.25;5.00;3.00
65383;PMS5003;51986;52.788;41.368;2023-03-03T18:32:39;4.00;4.00;4.00
65383;PMS5003;51986;52.788;41.368;2023-03-03T18:35:21;7.00;6.00;5.00
65383;PMS5003;51986;52.788;41.368;2023-03-03T18:56:48;1.00;1.00;0.00
65383;PMS5003;51986;52.788;41.368;2023-03-03T19:04:52;2.00;2.00;1.00
65383;PMS5003;51986;52.788;41.368;2023-03-03T19:10:01;5.75;4.25;2.50
65383;PMS5003;51986;52.788;41.368;2023-03-03T19:20:26;3.00;3.00;0.00
65383;PMS5003;51986;52.788;41.368;2023-03-03T19:23:25;2.00;2.00;1.00
65383;PMS5003;51986;52.788;41.368;2023-03-03T19:26:18;2.00;2.00;1.00
65383;PMS5003;51986;52.788;41.368;2023-03-03T19:37:22;1.50;1.00;0.00
65383;PMS5003;51986;52.788;41.368;2023-03-03T19:40:10;0.00;0.00;0.00
65383;PMS5003;51986;52.788;41.368;2023-03-03T19:51:21;0.25;0.00;0.00
65383;PMS5003;51986;52.788;41.368;2023-03-03T19:56:55;6.50;6.50;6.00
65383;PMS5003;51986;52.788;41.368;2023-03-03T19:59:39;1.25;1.25;1.00
65383;PMS5003;51986;52.788;41.368;2023-03-03T20:10:34;7.00;7.00;5.00
65383;PMS5003;51986;52.788;41.368;2023-03-03T20:32:34;5.00;4.00;2.50
65383;PMS5003;51986;52.788;41.368;2023-03-03T20:40:43;1.25;1.00;1.00
65383;PMS5003;51986;52.788;41.368;2023-03-03T20:48:28;6.00;6.00;5.00
65383;PMS5003;51986;52.788;41.368;2023-03-03T20:51:27;5.50;5.00;4.25
65383;PMS5003;51986;52.788;41.368;2023-03-03T21:02:15;1.00;0.00;0.00
65383;PMS5003;51986;52.788;41.368;2023-03-03T21:07:32;3.00;3.00;1.00
65383;PMS5003;51986;52.788;41.368;2023-03-03T21:10:10;2.00;2.00;1.00
65383;PMS5003;51986;52.788;41.368;2023-03-03T21:12:42;6.25;6.25;4.75
65383;PMS5003;51986;52.788;41.368;2023-03-03T21:15:21;2.50;2.50;2.25
65383;PMS5003;51986;52.788;41.368;2023-03-03T21:17:59;1.00;1.00;1.00
65383;PMS5003;51986;52.788;41.368;2023-03-03T21:20:44;3.00;3.00;1.00
65383;PMS5003;51986;52.788;41.368;2023-03-03T21:23:11;3.00;3.00;2.00
65383;PMS5003;51986;52.788;41.368;2023-03-03T21:25:48;1.00;1.00;0.00
65383;PMS5003;51986;52.788;41.368;2023-03-03T21:33:47;1.50;1.00;0.00
65383;PMS5003;51986;52.788;41.368;2023-03-03T21:38:58;5.75;5.75;5.50
65383;PMS5003;51986;52.788;41.368;2023-03-03T21:41:25;5.50;5.25;5.00
65383;PMS5003;51986;52.788;41.368;2023-03-03T21:43:52;1.00;1.00;1.00
65383;PMS5003;51986;52.788;41.368;2023-03-03T21:46:23;2.00;2.00;1.00
65383;PMS5003;51986;52.788;41.368;2023-03-03T21:48:51;3.50;3.25;2.75